sensor_id;sensor_type;location;lat;lon;timestamp;P1;durP1;ratioP1;P2;durP2;ratioP2
48327;SDS011;34136;51.022;7.082;2023-02-15T01:40:08;38.60;;;25.37;;
48327;SDS011;34136;51.022;7.082;2023-02-15T01:42:58;33.08;;;24.40;;
48327;SDS011;34136;51.022;7.082;2023-02-15T01:45:45;36.20;;;24.90;;
48327;SDS011;34136;51.022;7.082;2023-02-15T01:48:34;34.58;;;25.17;;
48327;SDS011;34136;51.022;7.082;2023-02-15T01:51:27;36.17;;;26.17;;
48327;SDS011;34136;51.022;7.082;2023-02-15T01:54:32;34.20;;;25.00;;
48327;SDS011;34136;51.022;7.082;2023-02-15T01:57:24;34.28;;;24.27;;
48327;SDS011;34136;51.022;7.082;2023-02-15T02:00:13;37.20;;;25.10;;
48327;SDS011;34136;51.022;7.082;2023-02-15T02:03:19;36.30;;;24.53;;
48327;SDS011;34136;51.022;7.082;2023-02-15T02:06:15;37.00;;;25.10;;
48327;SDS011;34136;51.022;7.082;2023-02-15T02:09:03;35.97;;;24.37;;
48327;SDS011;34136;51.022;7.082;2023-02-15T02:11:51;33.83;;;24.00;;
48327;SDS011;34136;51.022;7.082;2023-02-15T02:14:37;39.40;;;26.07;;
48327;SDS011;34136;51.022;7.082;2023-02-15T02:23:45;32.85;;;22.88;;
48327;SDS011;34136;51.022;7.082;2023-02-15T02:36:00;36.00;;;24.40;;
48327;SDS011;34136;51.022;7.082;2023-02-15T02:39:21;40.63;;;23.53;;
48327;SDS011;34136;51.022;7.082;2023-02-15T02:45:32;36.77;;;25.47;;
48327;SDS011;34136;51.022;7.082;2023-02-15T02:48:27;37.63;;;24.70;;
48327;SDS011;34136;51.022;7.082;2023-02-15T02:51:18;34.80;;;24.17;;
48327;SDS011;34136;51.022;7.082;2023-02-15T02:54:04;37.67;;;24.97;;
48327;SDS011;34136;51.022;7.082;2023-02-15T02:56:52;34.37;;;24.57;;
48327;SDS011;34136;51.022;7.082;2023-02-15T02:59:41;40.97;;;25.00;;
48327;SDS011;34136;51.022;7.082;2023-02-15T03:02:33;38.45;;;25.58;;
48327;SDS011;34136;51.022;7.082;2023-02-15T03:05:24;36.60;;;25.17;;
48327;SDS011;34136;51.022;7.082;2023-02-15T03:08:14;36.67;;;24.33;;
48327;SDS011;34136;51.022;7.082;2023-02-15T03:11:05;42.08;;;25.85;;
48327;SDS011;34136;51.022;7.082;2023-02-15T03:13:52;38.80;;;24.73;;
48327;SDS011;34136;51.022;7.082;2023-02-15T03:16:39;39.70;;;25.00;;
48327;SDS011;34136;51.022;7.082;2023-02-15T03:19:31;36.97;;;24.08;;
48327;SDS011;34136;51.022;7.082;2023-02-15T03:22:21;39.67;;;25.27;;
48327;SDS011;34136;51.022;7.082;2023-02-15T03:28:07;38.00;;;24.13;;
48327;SDS011;34136;51.022;7.082;2023-02-15T03:30:57;36.90;;;23.53;;
48327;SDS011;34136;51.022;7.082;2023-02-15T03:33:52;35.77;;;24.17;;
48327;SDS011;34136;51.022;7.082;2023-02-15T03:36:45;35.13;;;24.63;;
48327;SDS011;34136;51.022;7.082;2023-02-15T03:39:57;37.80;;;24.30;;
48327;SDS011;34136;51.022;7.082;2023-02-15T03:42:49;37.37;;;24.30;;
48327;SDS011;34136;51.022;7.082;2023-02-15T03:45:45;40.57;;;26.00;;
48327;SDS011;34136;51.022;7.082;2023-02-15T03:48:37;38.30;;;25.23;;
48327;SDS011;34136;51.022;7.082;2023-02-15T03:51:31;39.50;;;25.77;;
48327;SDS011;34136;51.022;7.082;2023-02-15T03:54:26;40.67;;;24.63;;
48327;SDS011;34136;51.022;7.082;2023-02-15T03:57:29;42.53;;;26.63;;
48327;SDS011;34136;51.022;7.082;2023-02-15T04:00:21;41.67;;;26.57;;
48327;SDS011;34136;51.022;7.082;2023-02-15T04:06:02;38.42;;;26.95;;
48327;SDS011;34136;51.022;7.082;2023-02-15T04:08:49;37.67;;;24.83;;
48327;SDS011;34136;51.022;7.082;2023-02-15T04:11:35;38.77;;;24.33;;
48327;SDS011;34136;51.022;7.082;2023-02-15T04:14:21;33.87;;;23.37;;
48327;SDS011;34136;51.022;7.082;2023-02-15T04:17:08;38.07;;;23.07;;
48327;SDS011;34136;51.022;7.082;2023-02-15T04:19:55;37.07;;;23.50;;
48327;SDS011;34136;51.022;7.082;2023-02-15T04:22:41;38.97;;;25.17;;
48327;SDS011;34136;51.022;7.082;2023-02-15T04:25:27;38.33;;;24.30;;
48327;SDS011;34136;51.022;7.082;2023-02-15T04:28:14;38.50;;;24.57;;
48327;SDS011;34136;51.022;7.082;2023-02-15T04:31:00;39.97;;;25.17;;
48327;SDS011;34136;51.022;7.082;2023-02-15T04:33:46;41.60;;;25.93;;
48327;SDS011;34136;51.022;7.082;2023-02-15T04:36:33;38.20;;;25.07;;
48327;SDS011;34136;51.022;7.082;2023-02-15T04:39:20;38.13;;;25.47;;
48327;SDS011;34136;51.022;7.082;2023-02-15T04:42:06;40.13;;;24.57;;
48327;SDS011;34136;51.022;7.082;2023-02-15T04:44:52;41.27;;;24.83;;
48327;SDS011;34136;51.022;7.082;2023-02-15T04:47:39;37.87;;;24.73;;
48327;SDS011;34136;51.022;7.082;2023-02-15T04:50:25;40.80;;;24.87;;
48327;SDS011;34136;51.022;7.082;2023-02-15T04:53:11;36.77;;;23.13;;
48327;SDS011;34136;51.022;7.082;2023-02-15T04:55:58;37.20;;;24.13;;
48327;SDS011;34136;51.022;7.082;2023-02-15T04:58:44;36.40;;;24.17;;
48327;SDS011;34136;51.022;7.082;2023-02-15T05:01:30;38.47;;;23.97;;
48327;SDS011;34136;51.022;7.082;2023-02-15T05:04:16;40.40;;;24.63;;
48327;SDS011;34136;51.022;7.082;2023-02-15T05:07:02;38.30;;;24.20;;
48327;SDS011;34136;51.022;7.082;2023-02-15T05:09:48;39.27;;;24.57;;
48327;SDS011;34136;51.022;7.082;2023-02-15T05:12:35;38.37;;;24.90;;
48327;SDS011;34136;51.022;7.082;2023-02-15T05:15:21;40.43;;;25.47;;
48327;SDS011;34136;51.022;7.082;2023-02-15T05:18:07;36.67;;;24.00;;
48327;SDS011;34136;51.022;7.082;2023-02-15T05:20:54;38.67;;;23.17;;
48327;SDS011;34136;51.022;7.082;2023-02-15T05:23:40;36.87;;;23.93;;
48327;SDS011;34136;51.022;7.082;2023-02-15T05:26:27;38.80;;;23.93;;
48327;SDS011;34136;51.022;7.082;2023-02-15T05:29:12;36.90;;;23.60;;
48327;SDS011;34136;51.022;7.082;2023-02-15T05:31:59;37.10;;;24.63;;
48327;SDS011;34136;51.022;7.082;2023-02-15T05:34:45;39.73;;;24.40;;
48327;SDS011;34136;51.022;7.082;2023-02-15T05:37:31;39.87;;;24.27;;
48327;SDS011;34136;51.022;7.082;2023-02-15T05:40:17;37.80;;;24.53;;
48327;SDS011;34136;51.022;7.082;2023-02-15T05:43:04;38.47;;;23.43;;
48327;SDS011;34136;51.022;7.082;2023-02-15T05:45:51;41.67;;;24.07;;
48327;SDS011;34136;51.022;7.082;2023-02-15T05:48:39;40.30;;;24.43;;
48327;SDS011;34136;51.022;7.082;2023-02-15T05:51:25;40.87;;;24.13;;
48327;SDS011;34136;51.022;7.082;2023-02-15T05:54:12;42.63;;;25.63;;
48327;SDS011;34136;51.022;7.082;2023-02-15T05:56:58;41.80;;;24.93;;
48327;SDS011;34136;51.022;7.082;2023-02-15T05:59:44;38.33;;;23.67;;
48327;SDS011;34136;51.022;7.082;2023-02-15T06:02:34;46.20;;;26.80;;
48327;SDS011;34136;51.022;7.082;2023-02-15T06:05:20;38.97;;;24.63;;
48327;SDS011;34136;51.022;7.082;2023-02-15T06:08:07;40.80;;;25.80;;
48327;SDS011;34136;51.022;7.082;2023-02-15T06:10:53;41.23;;;24.57;;
48327;SDS011;34136;51.022;7.082;2023-02-15T06:13:39;38.60;;;24.90;;
48327;SDS011;34136;51.022;7.082;2023-02-15T06:16:26;40.50;;;25.50;;
48327;SDS011;34136;51.022;7.082;2023-02-15T06:19:12;39.37;;;23.97;;
48327;SDS011;34136;51.022;7.082;2023-02-15T06:21:58;36.93;;;24.53;;
48327;SDS011;34136;51.022;7.082;2023-02-15T06:24:44;39.47;;;23.67;;
48327;SDS011;34136;51.022;7.082;2023-02-15T06:27:30;37.47;;;23.80;;
48327;SDS011;34136;51.022;7.082;2023-02-15T06:30:17;39.23;;;24.67;;
48327;SDS011;34136;51.022;7.082;2023-02-15T06:33:03;38.77;;;23.50;;
48327;SDS011;34136;51.022;7.082;2023-02-15T06:35:50;37.63;;;22.97;;
48327;SDS011;34136;51.022;7.082;2023-02-15T06:38:36;37.70;;;22.87;;
48327;SDS011;34136;51.022;7.082;2023-02-15T06:41:22;40.57;;;24.00;;
48327;SDS011;34136;51.022;7.082;2023-02-15T06:44:09;35.37;;;23.37;;
48327;SDS011;34136;51.022;7.082;2023-02-15T06:46:55;37.00;;;23.90;;
48327;SDS011;34136;51.022;7.082;2023-02-15T06:49:41;38.87;;;24.13;;
48327;SDS011;34136;51.022;7.082;2023-02-15T06:52:27;39.07;;;24.23;;
48327;SDS011;34136;51.022;7.082;2023-02-15T06:55:14;38.77;;;23.90;;
48327;SDS011;34136;51.022;7.082;2023-02-15T06:58:00;38.77;;;23.93;;
48327;SDS011;34136;51.022;7.082;2023-02-15T07:00:46;38.30;;;23.73;;
48327;SDS011;34136;51.022;7.082;2023-02-15T07:03:32;35.60;;;22.33;;
48327;SDS011;34136;51.022;7.082;2023-02-15T07:06:19;37.53;;;22.87;;
48327;SDS011;34136;51.022;7.082;2023-02-15T07:09:05;35.17;;;20.60;;
48327;SDS011;34136;51.022;7.082;2023-02-15T07:11:51;37.57;;;23.87;;
48327;SDS011;34136;51.022;7.082;2023-02-15T07:14:37;39.13;;;23.47;;
48327;SDS011;34136;51.022;7.082;2023-02-15T07:17:23;36.47;;;22.77;;
48327;SDS011;34136;51.022;7.082;2023-02-15T07:20:12;33.97;;;21.93;;
48327;SDS011;34136;51.022;7.082;2023-02-15T07:22:59;38.37;;;22.73;;
48327;SDS011;34136;51.022;7.082;2023-02-15T07:25:46;35.20;;;23.53;;
48327;SDS011;34136;51.022;7.082;2023-02-15T07:28:33;36.93;;;23.70;;
48327;SDS011;34136;51.022;7.082;2023-02-15T07:31:19;35.57;;;23.30;;
48327;SDS011;34136;51.022;7.082;2023-02-15T07:34:05;38.47;;;22.50;;
48327;SDS011;34136;51.022;7.082;2023-02-15T07:36:51;37.27;;;22.90;;
48327;SDS011;34136;51.022;7.082;2023-02-15T07:39:38;36.87;;;22.27;;
48327;SDS011;34136;51.022;7.082;2023-02-15T07:42:24;35.00;;;22.77;;
48327;SDS011;34136;51.022;7.082;2023-02-15T07:45:10;34.90;;;21.63;;
48327;SDS011;34136;51.022;7.082;2023-02-15T07:47:56;34.93;;;22.77;;
48327;SDS011;34136;51.022;7.082;2023-02-15T07:50:42;33.40;;;21.43;;
48327;SDS011;34136;51.022;7.082;2023-02-15T07:53:29;34.53;;;21.50;;
48327;SDS011;34136;51.022;7.082;2023-02-15T07:56:16;35.27;;;21.87;;
48327;SDS011;34136;51.022;7.082;2023-02-15T07:59:02;34.83;;;22.13;;
48327;SDS011;34136;51.022;7.082;2023-02-15T08:01:48;33.57;;;21.57;;
48327;SDS011;34136;51.022;7.082;2023-02-15T08:04:34;34.10;;;21.97;;
48327;SDS011;34136;51.022;7.082;2023-02-15T08:07:20;31.83;;;19.80;;
48327;SDS011;34136;51.022;7.082;2023-02-15T08:10:06;30.57;;;19.73;;
48327;SDS011;34136;51.022;7.082;2023-02-15T08:12:52;34.70;;;20.00;;
48327;SDS011;34136;51.022;7.082;2023-02-15T08:15:38;29.10;;;19.37;;
48327;SDS011;34136;51.022;7.082;2023-02-15T08:18:24;29.13;;;19.50;;
48327;SDS011;34136;51.022;7.082;2023-02-15T08:21:10;25.77;;;17.53;;
48327;SDS011;34136;51.022;7.082;2023-02-15T08:23:56;29.10;;;18.83;;
48327;SDS011;34136;51.022;7.082;2023-02-15T08:26:43;27.83;;;18.97;;
48327;SDS011;34136;51.022;7.082;2023-02-15T08:29:30;29.87;;;18.70;;
48327;SDS011;34136;51.022;7.082;2023-02-15T08:32:17;32.63;;;20.73;;
48327;SDS011;34136;51.022;7.082;2023-02-15T08:35:03;32.13;;;19.90;;
48327;SDS011;34136;51.022;7.082;2023-02-15T08:37:51;26.57;;;18.80;;
48327;SDS011;34136;51.022;7.082;2023-02-15T08:40:37;26.03;;;17.10;;
48327;SDS011;34136;51.022;7.082;2023-02-15T08:43:23;24.33;;;18.80;;
48327;SDS011;34136;51.022;7.082;2023-02-15T08:46:09;25.13;;;16.70;;
48327;SDS011;34136;51.022;7.082;2023-02-15T08:48:56;23.67;;;16.33;;
48327;SDS011;34136;51.022;7.082;2023-02-15T08:51:42;24.23;;;16.17;;
48327;SDS011;34136;51.022;7.082;2023-02-15T08:54:29;21.30;;;15.38;;
48327;SDS011;34136;51.022;7.082;2023-02-15T08:57:15;21.35;;;15.13;;
48327;SDS011;34136;51.022;7.082;2023-02-15T09:00:01;21.58;;;15.13;;
48327;SDS011;34136;51.022;7.082;2023-02-15T09:02:48;22.67;;;15.32;;
48327;SDS011;34136;51.022;7.082;2023-02-15T09:05:33;21.42;;;14.90;;
48327;SDS011;34136;51.022;7.082;2023-02-15T09:08:19;21.70;;;15.38;;
48327;SDS011;34136;51.022;7.082;2023-02-15T09:11:06;22.02;;;14.90;;
48327;SDS011;34136;51.022;7.082;2023-02-15T09:16:44;19.63;;;13.55;;
48327;SDS011;34136;51.022;7.082;2023-02-15T09:19:31;20.00;;;14.60;;
48327;SDS011;34136;51.022;7.082;2023-02-15T09:22:17;18.75;;;13.77;;
48327;SDS011;34136;51.022;7.082;2023-02-15T09:25:03;19.77;;;14.48;;
48327;SDS011;34136;51.022;7.082;2023-02-15T09:27:49;19.85;;;14.32;;
48327;SDS011;34136;51.022;7.082;2023-02-15T09:30:36;20.38;;;14.13;;
48327;SDS011;34136;51.022;7.082;2023-02-15T09:33:22;19.77;;;14.60;;
48327;SDS011;34136;51.022;7.082;2023-02-15T09:36:16;18.85;;;13.80;;
48327;SDS011;34136;51.022;7.082;2023-02-15T09:39:11;18.65;;;13.20;;
48327;SDS011;34136;51.022;7.082;2023-02-15T09:45:25;18.20;;;13.63;;
48327;SDS011;34136;51.022;7.082;2023-02-15T09:48:52;20.17;;;13.75;;
48327;SDS011;34136;51.022;7.082;2023-02-15T10:04:11;18.25;;;13.85;;
48327;SDS011;34136;51.022;7.082;2023-02-15T10:07:27;19.67;;;14.73;;
48327;SDS011;34136;51.022;7.082;2023-02-15T10:13:39;22.27;;;15.70;;
48327;SDS011;34136;51.022;7.082;2023-02-15T10:23:05;21.10;;;14.52;;
48327;SDS011;34136;51.022;7.082;2023-02-15T10:26:19;20.05;;;13.50;;
48327;SDS011;34136;51.022;7.082;2023-02-15T10:35:15;18.60;;;13.02;;
48327;SDS011;34136;51.022;7.082;2023-02-15T10:41:19;17.10;;;12.98;;
48327;SDS011;34136;51.022;7.082;2023-02-15T10:47:06;17.17;;;12.63;;
48327;SDS011;34136;51.022;7.082;2023-02-15T10:53:15;16.30;;;12.73;;
48327;SDS011;34136;51.022;7.082;2023-02-15T10:56:19;17.13;;;13.07;;
48327;SDS011;34136;51.022;7.082;2023-02-15T11:02:49;17.58;;;13.05;;
48327;SDS011;34136;51.022;7.082;2023-02-15T11:05:40;18.73;;;13.48;;
48327;SDS011;34136;51.022;7.082;2023-02-15T11:08:43;15.63;;;12.30;;
48327;SDS011;34136;51.022;7.082;2023-02-15T11:11:39;18.15;;;12.90;;
48327;SDS011;34136;51.022;7.082;2023-02-15T11:14:34;17.10;;;12.60;;
48327;SDS011;34136;51.022;7.082;2023-02-15T11:17:35;16.27;;;12.93;;
48327;SDS011;34136;51.022;7.082;2023-02-15T11:23:17;17.75;;;12.60;;
48327;SDS011;34136;51.022;7.082;2023-02-15T11:26:04;17.42;;;12.35;;
48327;SDS011;34136;51.022;7.082;2023-02-15T11:29:02;15.93;;;12.50;;
48327;SDS011;34136;51.022;7.082;2023-02-15T11:32:13;15.65;;;10.82;;
48327;SDS011;34136;51.022;7.082;2023-02-15T11:38:47;15.05;;;11.98;;
48327;SDS011;34136;51.022;7.082;2023-02-15T11:41:38;16.25;;;12.32;;
48327;SDS011;34136;51.022;7.082;2023-02-15T11:44:31;15.38;;;11.48;;
48327;SDS011;34136;51.022;7.082;2023-02-15T11:47:20;15.40;;;11.43;;
48327;SDS011;34136;51.022;7.082;2023-02-15T11:50:11;15.50;;;12.30;;
48327;SDS011;34136;51.022;7.082;2023-02-15T11:53:02;17.90;;;12.80;;
48327;SDS011;34136;51.022;7.082;2023-02-15T11:55:51;13.85;;;11.23;;
48327;SDS011;34136;51.022;7.082;2023-02-15T11:58:43;19.05;;;12.63;;
48327;SDS011;34136;51.022;7.082;2023-02-15T12:01:43;16.40;;;11.55;;
48327;SDS011;34136;51.022;7.082;2023-02-15T12:04:38;15.88;;;12.57;;
48327;SDS011;34136;51.022;7.082;2023-02-15T12:07:30;17.67;;;12.32;;
48327;SDS011;34136;51.022;7.082;2023-02-15T12:13:15;18.38;;;12.07;;
48327;SDS011;34136;51.022;7.082;2023-02-15T12:16:06;16.00;;;12.95;;
48327;SDS011;34136;51.022;7.082;2023-02-15T12:18:57;17.52;;;12.05;;
48327;SDS011;34136;51.022;7.082;2023-02-15T12:21:48;16.30;;;13.05;;
48327;SDS011;34136;51.022;7.082;2023-02-15T12:24:37;15.43;;;12.70;;
48327;SDS011;34136;51.022;7.082;2023-02-15T12:27:30;16.80;;;12.50;;
48327;SDS011;34136;51.022;7.082;2023-02-15T12:30:19;17.38;;;12.45;;
48327;SDS011;34136;51.022;7.082;2023-02-15T12:33:21;16.77;;;12.90;;
48327;SDS011;34136;51.022;7.082;2023-02-15T12:36:14;17.23;;;12.38;;
48327;SDS011;34136;51.022;7.082;2023-02-15T12:41:59;15.90;;;12.75;;
48327;SDS011;34136;51.022;7.082;2023-02-15T12:44:59;15.27;;;11.68;;
48327;SDS011;34136;51.022;7.082;2023-02-15T12:50:52;16.92;;;12.43;;
48327;SDS011;34136;51.022;7.082;2023-02-15T12:53:54;17.27;;;12.95;;
48327;SDS011;34136;51.022;7.082;2023-02-15T12:56:41;15.40;;;12.18;;
48327;SDS011;34136;51.022;7.082;2023-02-15T12:59:27;16.58;;;11.88;;
48327;SDS011;34136;51.022;7.082;2023-02-15T13:02:19;16.13;;;12.50;;
48327;SDS011;34136;51.022;7.082;2023-02-15T13:07:56;16.92;;;13.57;;
48327;SDS011;34136;51.022;7.082;2023-02-15T13:13:51;16.88;;;12.77;;
48327;SDS011;34136;51.022;7.082;2023-02-15T13:16:44;16.52;;;12.48;;
48327;SDS011;34136;51.022;7.082;2023-02-15T13:19:37;18.85;;;13.20;;
48327;SDS011;34136;51.022;7.082;2023-02-15T13:22:40;19.33;;;13.82;;
48327;SDS011;34136;51.022;7.082;2023-02-15T13:25:32;20.63;;;13.38;;
48327;SDS011;34136;51.022;7.082;2023-02-15T13:28:37;16.52;;;12.23;;
48327;SDS011;34136;51.022;7.082;2023-02-15T13:31:27;18.63;;;13.30;;
48327;SDS011;34136;51.022;7.082;2023-02-15T13:34:16;16.27;;;12.27;;
48327;SDS011;34136;51.022;7.082;2023-02-15T13:37:21;16.35;;;12.00;;
48327;SDS011;34136;51.022;7.082;2023-02-15T13:52:34;16.90;;;11.90;;
48327;SDS011;34136;51.022;7.082;2023-02-15T13:55:52;20.75;;;12.63;;
48327;SDS011;34136;51.022;7.082;2023-02-15T13:58:44;17.33;;;11.48;;
48327;SDS011;34136;51.022;7.082;2023-02-15T14:14:11;15.50;;;11.57;;
48327;SDS011;34136;51.022;7.082;2023-02-15T14:17:22;16.70;;;12.02;;
48327;SDS011;34136;51.022;7.082;2023-02-15T14:20:22;15.82;;;11.50;;
48327;SDS011;34136;51.022;7.082;2023-02-15T14:26:34;16.73;;;12.90;;
48327;SDS011;34136;51.022;7.082;2023-02-15T14:32:42;20.58;;;14.20;;
48327;SDS011;34136;51.022;7.082;2023-02-15T14:35:33;18.75;;;13.27;;
48327;SDS011;34136;51.022;7.082;2023-02-15T14:38:38;18.13;;;12.90;;
48327;SDS011;34136;51.022;7.082;2023-02-15T14:41:44;16.52;;;13.40;;
48327;SDS011;34136;51.022;7.082;2023-02-15T14:44:37;16.80;;;12.43;;
48327;SDS011;34136;51.022;7.082;2023-02-15T14:47:31;17.23;;;13.80;;
48327;SDS011;34136;51.022;7.082;2023-02-15T14:56:16;20.20;;;13.43;;
48327;SDS011;34136;51.022;7.082;2023-02-15T14:59:12;18.58;;;12.93;;
48327;SDS011;34136;51.022;7.082;2023-02-15T15:10:50;16.27;;;12.85;;
48327;SDS011;34136;51.022;7.082;2023-02-15T15:13:36;16.98;;;13.30;;
48327;SDS011;34136;51.022;7.082;2023-02-15T15:16:27;17.10;;;13.15;;
48327;SDS011;34136;51.022;7.082;2023-02-15T15:22:31;18.90;;;13.55;;
48327;SDS011;34136;51.022;7.082;2023-02-15T15:49:50;17.30;;;13.88;;
48327;SDS011;34136;51.022;7.082;2023-02-15T15:52:55;17.63;;;12.82;;
48327;SDS011;34136;51.022;7.082;2023-02-15T15:55:44;18.95;;;13.60;;
48327;SDS011;34136;51.022;7.082;2023-02-15T15:58:34;18.77;;;13.98;;
48327;SDS011;34136;51.022;7.082;2023-02-15T16:01:24;15.30;;;12.68;;
48327;SDS011;34136;51.022;7.082;2023-02-15T16:10:06;18.83;;;14.10;;
48327;SDS011;34136;51.022;7.082;2023-02-15T16:13:05;17.90;;;13.65;;
48327;SDS011;34136;51.022;7.082;2023-02-15T16:15:52;18.10;;;13.50;;
48327;SDS011;34136;51.022;7.082;2023-02-15T16:18:40;17.13;;;13.18;;
48327;SDS011;34136;51.022;7.082;2023-02-15T16:21:29;18.25;;;12.88;;
48327;SDS011;34136;51.022;7.082;2023-02-15T16:25:02;16.77;;;13.27;;
48327;SDS011;34136;51.022;7.082;2023-02-15T16:30:28;17.88;;;13.52;;
48327;SDS011;34136;51.022;7.082;2023-02-15T16:33:16;17.33;;;13.00;;
48327;SDS011;34136;51.022;7.082;2023-02-15T16:36:02;17.70;;;14.05;;
48327;SDS011;34136;51.022;7.082;2023-02-15T16:41:35;17.02;;;13.65;;
48327;SDS011;34136;51.022;7.082;2023-02-15T16:44:24;15.63;;;12.88;;
48327;SDS011;34136;51.022;7.082;2023-02-15T16:47:18;17.65;;;12.90;;
48327;SDS011;34136;51.022;7.082;2023-02-15T16:50:16;22.95;;;17.85;;
48327;SDS011;34136;51.022;7.082;2023-02-15T16:53:05;20.55;;;14.85;;
48327;SDS011;34136;51.022;7.082;2023-02-15T16:56:02;20.48;;;14.50;;
48327;SDS011;34136;51.022;7.082;2023-02-15T16:58:50;18.02;;;14.38;;
48327;SDS011;34136;51.022;7.082;2023-02-15T17:01:40;19.25;;;14.65;;
48327;SDS011;34136;51.022;7.082;2023-02-15T17:04:30;19.67;;;14.48;;
48327;SDS011;34136;51.022;7.082;2023-02-15T17:07:19;21.17;;;16.92;;
48327;SDS011;34136;51.022;7.082;2023-02-15T17:10:25;18.13;;;14.60;;
48327;SDS011;34136;51.022;7.082;2023-02-15T17:13:12;18.85;;;14.05;;
48327;SDS011;34136;51.022;7.082;2023-02-15T17:18:48;16.80;;;13.23;;
48327;SDS011;34136;51.022;7.082;2023-02-15T17:21:37;20.05;;;14.82;;
48327;SDS011;34136;51.022;7.082;2023-02-15T17:24:33;17.67;;;14.77;;
48327;SDS011;34136;51.022;7.082;2023-02-15T17:27:26;20.80;;;16.00;;
48327;SDS011;34136;51.022;7.082;2023-02-15T17:30:17;20.27;;;15.43;;
48327;SDS011;34136;51.022;7.082;2023-02-15T17:33:23;19.48;;;15.65;;
48327;SDS011;34136;51.022;7.082;2023-02-15T17:41:43;20.23;;;13.95;;
48327;SDS011;34136;51.022;7.082;2023-02-15T17:44:29;19.52;;;14.95;;
48327;SDS011;34136;51.022;7.082;2023-02-15T17:47:16;18.10;;;14.45;;
48327;SDS011;34136;51.022;7.082;2023-02-15T17:50:05;17.35;;;14.50;;
48327;SDS011;34136;51.022;7.082;2023-02-15T17:52:52;18.77;;;14.50;;
48327;SDS011;34136;51.022;7.082;2023-02-15T17:55:39;18.73;;;13.88;;
48327;SDS011;34136;51.022;7.082;2023-02-15T17:58:26;21.50;;;14.75;;
48327;SDS011;34136;51.022;7.082;2023-02-15T18:01:14;18.85;;;14.88;;
48327;SDS011;34136;51.022;7.082;2023-02-15T18:04:03;25.90;;;15.68;;
48327;SDS011;34136;51.022;7.082;2023-02-15T18:06:53;20.08;;;15.48;;
48327;SDS011;34136;51.022;7.082;2023-02-15T18:09:39;21.55;;;15.57;;
48327;SDS011;34136;51.022;7.082;2023-02-15T18:15:16;21.25;;;14.77;;
48327;SDS011;34136;51.022;7.082;2023-02-15T18:18:02;21.13;;;14.80;;
48327;SDS011;34136;51.022;7.082;2023-02-15T18:20:48;19.23;;;15.18;;
48327;SDS011;34136;51.022;7.082;2023-02-15T18:23:35;19.42;;;15.15;;
48327;SDS011;34136;51.022;7.082;2023-02-15T18:26:21;18.95;;;15.07;;
48327;SDS011;34136;51.022;7.082;2023-02-15T18:29:09;18.92;;;14.52;;
48327;SDS011;34136;51.022;7.082;2023-02-15T18:31:55;20.95;;;14.43;;
48327;SDS011;34136;51.022;7.082;2023-02-15T18:34:43;20.92;;;14.85;;
48327;SDS011;34136;51.022;7.082;2023-02-15T18:37:33;23.58;;;16.75;;
48327;SDS011;34136;51.022;7.082;2023-02-15T18:40:20;21.55;;;14.85;;
48327;SDS011;34136;51.022;7.082;2023-02-15T18:43:11;21.58;;;17.42;;
48327;SDS011;34136;51.022;7.082;2023-02-15T18:45:58;30.83;;;19.27;;
48327;SDS011;34136;51.022;7.082;2023-02-15T18:48:44;28.27;;;20.08;;
48327;SDS011;34136;51.022;7.082;2023-02-15T18:51:30;23.13;;;17.42;;
48327;SDS011;34136;51.022;7.082;2023-02-15T18:54:18;22.55;;;16.95;;
48327;SDS011;34136;51.022;7.082;2023-02-15T18:57:07;24.10;;;17.48;;
48327;SDS011;34136;51.022;7.082;2023-02-15T18:59:57;23.60;;;17.17;;
48327;SDS011;34136;51.022;7.082;2023-02-15T19:02:43;22.33;;;15.73;;
48327;SDS011;34136;51.022;7.082;2023-02-15T19:05:29;22.95;;;16.90;;
48327;SDS011;34136;51.022;7.082;2023-02-15T19:08:18;25.35;;;18.13;;
48327;SDS011;34136;51.022;7.082;2023-02-15T19:11:11;23.60;;;17.15;;
48327;SDS011;34136;51.022;7.082;2023-02-15T19:14:01;23.75;;;17.33;;
48327;SDS011;34136;51.022;7.082;2023-02-15T19:16:48;21.40;;;16.40;;
48327;SDS011;34136;51.022;7.082;2023-02-15T19:19:34;25.52;;;17.98;;
48327;SDS011;34136;51.022;7.082;2023-02-15T19:25:16;26.27;;;18.42;;
48327;SDS011;34136;51.022;7.082;2023-02-15T19:28:20;23.42;;;17.67;;
48327;SDS011;34136;51.022;7.082;2023-02-15T19:34:12;23.80;;;16.70;;
48327;SDS011;34136;51.022;7.082;2023-02-15T19:37:00;23.60;;;18.05;;
48327;SDS011;34136;51.022;7.082;2023-02-15T19:39:46;23.60;;;17.92;;
48327;SDS011;34136;51.022;7.082;2023-02-15T19:42:32;24.73;;;18.92;;
48327;SDS011;34136;51.022;7.082;2023-02-15T19:45:20;25.08;;;18.88;;
48327;SDS011;34136;51.022;7.082;2023-02-15T19:48:10;21.85;;;17.42;;
48327;SDS011;34136;51.022;7.082;2023-02-15T19:50:57;20.17;;;15.15;;
48327;SDS011;34136;51.022;7.082;2023-02-15T19:53:44;24.23;;;16.45;;
48327;SDS011;34136;51.022;7.082;2023-02-15T19:56:36;21.45;;;15.88;;
48327;SDS011;34136;51.022;7.082;2023-02-15T19:59:32;23.40;;;16.92;;
48327;SDS011;34136;51.022;7.082;2023-02-15T20:02:18;23.75;;;16.90;;
48327;SDS011;34136;51.022;7.082;2023-02-15T20:05:04;23.75;;;16.98;;
48327;SDS011;34136;51.022;7.082;2023-02-15T20:07:51;25.70;;;17.38;;
48327;SDS011;34136;51.022;7.082;2023-02-15T20:10:38;21.80;;;15.70;;
48327;SDS011;34136;51.022;7.082;2023-02-15T20:13:25;23.85;;;16.15;;
48327;SDS011;34136;51.022;7.082;2023-02-15T20:16:11;24.90;;;17.02;;
48327;SDS011;34136;51.022;7.082;2023-02-15T20:18:57;22.42;;;16.70;;
48327;SDS011;34136;51.022;7.082;2023-02-15T20:21:44;23.67;;;17.40;;
48327;SDS011;34136;51.022;7.082;2023-02-15T20:24:32;21.85;;;16.00;;
48327;SDS011;34136;51.022;7.082;2023-02-15T20:27:19;22.90;;;17.42;;
48327;SDS011;34136;51.022;7.082;2023-02-15T20:30:06;23.30;;;16.88;;
48327;SDS011;34136;51.022;7.082;2023-02-15T20:32:59;23.15;;;18.08;;
48327;SDS011;34136;51.022;7.082;2023-02-15T20:35:46;23.55;;;17.05;;
48327;SDS011;34136;51.022;7.082;2023-02-15T20:38:33;23.60;;;18.00;;
48327;SDS011;34136;51.022;7.082;2023-02-15T20:41:20;25.63;;;17.55;;
48327;SDS011;34136;51.022;7.082;2023-02-15T20:44:28;24.33;;;18.25;;
48327;SDS011;34136;51.022;7.082;2023-02-15T20:47:16;23.10;;;18.20;;
48327;SDS011;34136;51.022;7.082;2023-02-15T20:50:02;25.98;;;16.83;;
48327;SDS011;34136;51.022;7.082;2023-02-15T20:52:49;23.95;;;18.08;;
48327;SDS011;34136;51.022;7.082;2023-02-15T20:55:36;26.10;;;18.25;;
48327;SDS011;34136;51.022;7.082;2023-02-15T20:58:27;26.40;;;17.83;;
48327;SDS011;34136;51.022;7.082;2023-02-15T21:01:14;22.83;;;16.65;;
48327;SDS011;34136;51.022;7.082;2023-02-15T21:04:01;21.88;;;17.00;;
48327;SDS011;34136;51.022;7.082;2023-02-15T21:06:48;24.05;;;17.30;;
48327;SDS011;34136;51.022;7.082;2023-02-15T21:09:34;22.95;;;17.83;;
48327;SDS011;34136;51.022;7.082;2023-02-15T21:12:20;22.88;;;16.85;;
48327;SDS011;34136;51.022;7.082;2023-02-15T21:15:13;24.33;;;16.85;;
48327;SDS011;34136;51.022;7.082;2023-02-15T21:18:23;23.13;;;16.20;;
48327;SDS011;34136;51.022;7.082;2023-02-15T21:21:13;26.90;;;18.00;;
48327;SDS011;34136;51.022;7.082;2023-02-15T21:24:04;23.88;;;17.02;;
48327;SDS011;34136;51.022;7.082;2023-02-15T21:26:51;24.75;;;17.80;;
48327;SDS011;34136;51.022;7.082;2023-02-15T21:29:37;23.35;;;17.80;;